createdAt,value
2022-10-11T00:00:11.634Z,15.54
2022-10-11T00:02:38.359Z,15.56
2022-10-11T00:05:05.528Z,15.49
2022-10-11T00:07:32.276Z,15.50
2022-10-11T00:09:59.024Z,15.48
2022-10-11T00:12:25.765Z,15.48
2022-10-11T00:14:52.661Z,15.42
2022-10-11T00:17:19.404Z,15.44
2022-10-11T00:19:46.429Z,15.39
2022-10-11T00:22:13.215Z,15.33
2022-10-11T00:24:42.642Z,15.36
2022-10-11T00:27:09.491Z,15.44
2022-10-11T00:29:37.938Z,15.47
2022-10-11T00:32:05.409Z,15.47
2022-10-11T00:34:32.445Z,15.53
2022-10-11T00:36:59.279Z,15.57
2022-10-11T00:39:26.031Z,15.61
2022-10-11T00:41:52.842Z,15.61
2022-10-11T00:44:22.587Z,15.59
2022-10-11T00:47:06.205Z,15.55
2022-10-11T00:49:42.766Z,15.46
2022-10-11T00:52:28.925Z,15.41
2022-10-11T00:54:58.145Z,15.42
2022-10-11T00:57:29.642Z,15.42
2022-10-11T00:59:57.070Z,15.39
2022-10-11T01:02:24.707Z,15.31
2022-10-11T01:05:05.644Z,15.37
2022-10-11T01:07:39.514Z,15.42
2022-10-11T01:10:06.619Z,15.46
2022-10-11T01:12:33.707Z,15.44
2022-10-11T01:15:12.563Z,15.34
2022-10-11T01:18:05.176Z,15.21
2022-10-11T01:20:59.560Z,15.18
2022-10-11T01:23:51.599Z,15.26
2022-10-11T01:26:42.932Z,15.32
2022-10-11T01:29:24.876Z,15.34
2022-10-11T01:31:58.782Z,15.39
2022-10-11T01:34:52.985Z,15.42
2022-10-11T01:37:32.684Z,15.34
2022-10-11T01:40:15.628Z,15.33
2022-10-11T01:42:43.850Z,15.38
2022-10-11T01:45:16.958Z,15.41
2022-10-11T01:47:45.670Z,15.43
2022-10-11T01:50:45.281Z,15.47
2022-10-11T01:53:37.681Z,15.51
2022-10-11T01:56:22.822Z,15.51
2022-10-11T01:59:09.185Z,15.49
2022-10-11T02:02:09.321Z,15.50
2022-10-11T02:04:53.486Z,15.49
2022-10-11T02:07:31.254Z,15.43
2022-10-11T02:10:15.416Z,15.41
2022-10-11T02:12:47.787Z,15.39
2022-10-11T02:15:17.280Z,15.35
2022-10-11T02:17:52.241Z,15.34
2022-10-11T02:20:23.085Z,15.32
2022-10-11T02:22:52.887Z,15.36
2022-10-11T02:25:25.805Z,15.38
2022-10-11T02:27:57.009Z,15.38
2022-10-11T02:30:23.822Z,15.37
2022-10-11T02:32:52.649Z,15.33
2022-10-11T02:35:24.531Z,15.30
2022-10-11T02:38:31.088Z,15.26
2022-10-11T02:41:03.284Z,15.26
2022-10-11T02:43:36.805Z,15.30
2022-10-11T02:46:06.049Z,15.33
2022-10-11T02:48:35.440Z,15.29
2022-10-11T02:51:03.582Z,15.30
2022-10-11T02:53:30.944Z,15.32
2022-10-11T02:55:57.912Z,15.33
2022-10-11T02:58:25.348Z,15.28
2022-10-11T03:00:52.427Z,15.26
2022-10-11T03:03:19.370Z,15.26
2022-10-11T03:05:46.232Z,15.24
2022-10-11T03:08:16.308Z,15.24
2022-10-11T03:10:43.292Z,15.24
2022-10-11T03:13:10.936Z,15.27
2022-10-11T03:15:39.706Z,15.24
2022-10-11T03:18:06.543Z,15.23
2022-10-11T03:20:33.596Z,15.21
2022-10-11T03:23:00.389Z,15.22
2022-10-11T03:25:27.142Z,15.17
2022-10-11T03:27:53.882Z,15.13
2022-10-11T03:30:20.788Z,15.11
2022-10-11T03:32:47.616Z,15.06
2022-10-11T03:35:14.627Z,15.06
2022-10-11T03:37:41.444Z,15.04
2022-10-11T03:40:10.490Z,15.06
2022-10-11T03:42:37.377Z,15.04
2022-10-11T03:45:07.994Z,15.03
2022-10-11T03:47:36.165Z,15.04
2022-10-11T03:50:04.721Z,15.00
2022-10-11T03:52:31.928Z,15.00
2022-10-11T03:54:58.651Z,14.98
2022-10-11T03:57:25.470Z,14.97
2022-10-11T03:59:52.237Z,14.98
2022-10-11T04:02:21.316Z,14.99
2022-10-11T04:04:48.118Z,14.89
2022-10-11T04:07:14.805Z,14.90
2022-10-11T04:09:41.808Z,14.90
2022-10-11T04:12:08.643Z,14.91
2022-10-11T04:14:35.340Z,14.93
2022-10-11T04:17:02.067Z,14.87
2022-10-11T04:19:28.975Z,14.89
2022-10-11T04:21:55.677Z,14.86
2022-10-11T04:24:22.620Z,14.84
2022-10-11T04:26:49.437Z,14.82
2022-10-11T04:29:16.505Z,14.78
2022-10-11T04:31:43.251Z,14.74
2022-10-11T04:34:09.941Z,14.79
2022-10-11T04:36:38.908Z,14.83
2022-10-11T04:39:07.220Z,14.81
2022-10-11T04:41:34.460Z,14.82
2022-10-11T04:44:02.319Z,14.88
2022-10-11T04:46:29.254Z,14.85
2022-10-11T04:48:56.368Z,14.84
2022-10-11T04:51:23.370Z,14.89
2022-10-11T04:53:50.171Z,14.84
2022-10-11T04:56:18.426Z,14.81
2022-10-11T04:58:48.005Z,14.81
2022-10-11T05:01:21.061Z,14.81
2022-10-11T05:03:48.175Z,14.82
2022-10-11T05:06:16.984Z,14.81
2022-10-11T05:08:43.701Z,14.79
2022-10-11T05:11:16.089Z,14.73
2022-10-11T05:13:44.288Z,14.70
2022-10-11T05:16:15.070Z,14.67
2022-10-11T05:18:45.503Z,14.69
2022-10-11T05:21:18.176Z,14.73
2022-10-11T05:23:45.963Z,14.76
2022-10-11T05:26:13.707Z,14.68
2022-10-11T05:28:40.447Z,14.65
2022-10-11T05:31:07.274Z,14.61
2022-10-11T05:33:34.295Z,14.58
2022-10-11T05:36:01.159Z,14.56
2022-10-11T05:38:35.770Z,14.55
2022-10-11T05:41:16.759Z,14.57
2022-10-11T05:43:44.837Z,14.54
2022-10-11T05:46:14.878Z,14.57
2022-10-11T05:48:41.739Z,14.54
2022-10-11T05:51:20.727Z,14.56
2022-10-11T05:53:47.601Z,14.59
2022-10-11T05:56:26.247Z,14.61
2022-10-11T05:58:56.558Z,14.63
2022-10-11T06:01:29.847Z,14.61
2022-10-11T06:03:56.631Z,14.61
2022-10-11T06:06:29.292Z,14.59
2022-10-11T06:08:56.698Z,14.59
2022-10-11T06:11:27.972Z,14.67
2022-10-11T06:13:56.230Z,14.68
2022-10-11T06:16:23.055Z,14.64
2022-10-11T06:18:56.149Z,14.68
2022-10-11T06:21:24.052Z,14.69
2022-10-11T06:23:54.564Z,14.73
2022-10-11T06:26:45.107Z,14.70
2022-10-11T06:29:11.813Z,14.70
2022-10-11T06:31:38.564Z,14.66
2022-10-11T06:34:05.426Z,14.70
2022-10-11T06:36:32.231Z,14.76
2022-10-11T06:39:01.505Z,14.72
2022-10-11T06:41:30.131Z,14.72
2022-10-11T06:43:57.042Z,14.68
2022-10-11T06:46:26.582Z,14.68
2022-10-11T06:48:54.173Z,14.66
2022-10-11T06:51:22.214Z,14.64
2022-10-11T06:53:55.733Z,14.62
2022-10-11T06:56:22.911Z,14.61
2022-10-11T06:58:51.095Z,14.61
2022-10-11T07:01:21.155Z,14.61
2022-10-11T07:03:48.272Z,14.60
2022-10-11T07:06:17.826Z,14.62
2022-10-11T07:08:44.982Z,14.61
2022-10-11T07:11:14.365Z,14.61
2022-10-11T07:13:41.889Z,14.61
2022-10-11T07:16:11.361Z,14.63
2022-10-11T07:18:38.612Z,14.61
2022-10-11T07:21:09.566Z,14.63
2022-10-11T07:23:36.405Z,14.68
2022-10-11T07:26:04.832Z,14.65
2022-10-11T07:28:31.970Z,14.65
2022-10-11T07:30:59.241Z,14.65
2022-10-11T07:33:26.141Z,14.66
2022-10-11T07:35:56.969Z,14.65
2022-10-11T07:38:23.750Z,14.67
2022-10-11T07:40:50.462Z,14.67
2022-10-11T07:43:17.229Z,14.71
2022-10-11T07:45:51.226Z,14.73
2022-10-11T07:48:17.946Z,14.78
2022-10-11T07:50:44.750Z,14.76
2022-10-11T07:53:11.672Z,14.72
2022-10-11T07:55:40.157Z,14.73
2022-10-11T07:58:10.871Z,14.71
2022-10-11T08:00:38.651Z,14.66
2022-10-11T08:03:06.644Z,14.67
2022-10-11T08:05:34.095Z,14.68
2022-10-11T08:08:00.902Z,14.72
2022-10-11T08:10:28.468Z,14.74
2022-10-11T08:12:55.283Z,14.83
2022-10-11T08:15:22.358Z,14.89
2022-10-11T08:17:49.175Z,14.87
2022-10-11T08:20:16.223Z,14.90
2022-10-11T08:22:43.031Z,14.85
2022-10-11T08:25:09.778Z,14.76
2022-10-11T08:27:36.626Z,14.76
2022-10-11T08:30:04.906Z,14.76
2022-10-11T08:32:31.693Z,14.80
2022-10-11T08:34:58.495Z,14.76
2022-10-11T08:37:25.333Z,14.76
2022-10-11T08:39:52.055Z,14.79
2022-10-11T08:42:36.332Z,14.76
2022-10-11T08:45:11.811Z,14.74
2022-10-11T08:47:46.910Z,14.76
2022-10-11T08:50:19.800Z,14.76
2022-10-11T08:52:55.630Z,14.76
2022-10-11T08:55:34.885Z,14.77
2022-10-11T08:58:02.068Z,14.79
2022-10-11T09:00:31.952Z,14.84
2022-10-11T09:06:52.872Z,14.79
2022-10-11T09:09:33.423Z,14.80
2022-10-11T09:12:18.929Z,14.82
2022-10-11T09:15:00.987Z,14.86
2022-10-11T09:17:30.712Z,14.89
2022-10-11T09:20:22.862Z,14.85
2022-10-11T09:22:49.475Z,14.90
2022-10-11T09:25:29.153Z,14.91
2022-10-11T09:28:08.054Z,14.95
2022-10-11T09:30:40.345Z,14.96
2022-10-11T09:33:17.387Z,14.87
2022-10-11T09:35:49.489Z,14.83
2022-10-11T09:38:41.723Z,14.87
2022-10-11T09:41:34.919Z,14.85
2022-10-11T09:44:01.890Z,14.93
2022-10-11T09:46:34.597Z,15.00
2022-10-11T09:49:04.094Z,14.96
2022-10-11T09:51:34.367Z,14.98
2022-10-11T09:54:04.902Z,14.96
2022-10-11T09:56:39.974Z,14.96
2022-10-11T09:59:25.502Z,14.94
2022-10-11T10:02:14.314Z,14.95
2022-10-11T10:05:01.378Z,14.97
2022-10-11T10:07:30.300Z,14.99
2022-10-11T10:09:57.920Z,14.99
2022-10-11T10:12:29.077Z,15.06
2022-10-11T10:15:03.308Z,15.10
2022-10-11T10:17:30.507Z,15.06
2022-10-11T10:20:00.364Z,15.05
2022-10-11T10:22:34.081Z,15.12
2022-10-11T10:25:05.896Z,15.13
2022-10-11T10:27:32.607Z,15.10
2022-10-11T10:30:02.222Z,15.00
2022-10-11T10:32:37.565Z,14.98
2022-10-11T10:35:18.535Z,15.00
2022-10-11T10:38:05.232Z,15.05
2022-10-11T10:40:40.391Z,15.04
2022-10-11T10:43:16.199Z,15.05
2022-10-11T10:46:10.006Z,15.08
2022-10-11T10:49:34.882Z,15.09
2022-10-11T10:52:51.113Z,15.22
2022-10-11T10:55:49.925Z,15.18
2022-10-11T10:58:37.746Z,15.17
2022-10-11T11:01:29.057Z,15.17
2022-10-11T11:04:19.112Z,15.10
2022-10-11T11:07:03.743Z,15.12
2022-10-11T11:09:42.181Z,15.15
2022-10-11T11:12:24.058Z,15.13
2022-10-11T11:15:03.735Z,15.09
2022-10-11T11:17:45.730Z,15.08
2022-10-11T11:20:39.277Z,15.08
2022-10-11T11:23:17.963Z,15.10
2022-10-11T11:26:12.122Z,15.23
2022-10-11T11:28:50.067Z,15.25
2022-10-11T11:31:44.899Z,15.17
2022-10-11T11:34:17.857Z,15.13
2022-10-11T11:37:02.412Z,15.09
2022-10-11T11:39:46.677Z,15.05
2022-10-11T11:42:16.673Z,15.11
2022-10-11T11:44:46.701Z,15.14
2022-10-11T11:47:25.163Z,15.18
2022-10-11T11:49:59.861Z,15.15
2022-10-11T11:52:36.052Z,15.18
2022-10-11T11:55:45.440Z,15.15
2022-10-11T11:58:30.966Z,15.17
2022-10-11T12:01:26.466Z,15.15
2022-10-11T12:04:01.556Z,15.10
2022-10-11T12:06:32.118Z,15.11
2022-10-11T12:09:09.209Z,15.16
2022-10-11T12:12:06.894Z,15.23
2022-10-11T12:14:36.819Z,15.20
2022-10-11T12:17:16.228Z,15.20
2022-10-11T12:20:01.129Z,15.26
2022-10-11T12:22:30.659Z,15.33
2022-10-11T12:25:19.161Z,15.39
2022-10-11T12:27:47.392Z,15.49
2022-10-11T12:31:02.539Z,15.56
2022-10-11T12:33:32.733Z,15.59
2022-10-11T12:36:22.237Z,15.60
2022-10-11T12:39:20.922Z,15.65
2022-10-11T12:41:47.819Z,15.63
2022-10-11T12:44:23.012Z,15.56
2022-10-11T12:46:57.488Z,15.53
2022-10-11T12:49:31.340Z,15.48
2022-10-11T12:52:27.006Z,15.44
2022-10-11T12:55:02.967Z,15.45
2022-10-11T12:57:46.448Z,15.49
2022-10-11T13:00:29.883Z,15.48
2022-10-11T13:02:58.531Z,15.55
2022-10-11T13:05:30.607Z,15.53
2022-10-11T13:08:02.500Z,15.48
2022-10-11T13:10:35.450Z,15.43
2022-10-11T13:13:04.489Z,15.39
2022-10-11T13:15:31.733Z,15.30
2022-10-11T13:18:13.373Z,15.28
2022-10-11T13:20:42.477Z,15.34
2022-10-11T13:23:28.648Z,15.39
2022-10-11T13:25:57.087Z,15.40
2022-10-11T13:28:24.613Z,15.42
2022-10-11T13:30:59.024Z,15.46
2022-10-11T13:33:32.903Z,15.49
2022-10-11T13:36:06.093Z,15.57
2022-10-11T13:38:36.073Z,15.58
2022-10-11T13:41:05.279Z,15.67
2022-10-11T13:43:32.536Z,15.71
2022-10-11T13:46:02.858Z,15.73
2022-10-11T13:48:32.073Z,15.74
2022-10-11T13:51:38.461Z,15.83
2022-10-11T13:54:24.846Z,15.87
2022-10-11T13:56:55.006Z,15.85
2022-10-11T13:59:27.985Z,15.88
2022-10-11T14:02:01.570Z,15.91
2022-10-11T14:04:40.430Z,15.86
2022-10-11T14:07:31.624Z,15.83
2022-10-11T14:10:07.331Z,15.85
2022-10-11T14:12:44.325Z,15.90
2022-10-11T14:15:36.438Z,15.90
2022-10-11T14:18:31.700Z,15.88
2022-10-11T14:20:58.572Z,15.87
2022-10-11T14:23:25.489Z,15.88
2022-10-11T14:25:53.148Z,15.90
2022-10-11T14:28:22.697Z,15.88
2022-10-11T14:31:01.424Z,15.91
2022-10-11T14:33:31.299Z,15.95
2022-10-11T14:35:58.072Z,15.97
2022-10-11T14:38:33.354Z,15.97
2022-10-11T14:41:03.815Z,15.97
2022-10-11T14:43:32.880Z,15.93
2022-10-11T14:45:59.863Z,15.95
2022-10-11T14:48:50.310Z,15.93
2022-10-11T14:51:14.950Z,15.90
2022-10-11T14:53:46.247Z,15.85
2022-10-11T14:56:18.941Z,15.82
2022-10-11T14:58:53.496Z,15.83
2022-10-11T15:01:24.997Z,15.82
2022-10-11T15:03:55.208Z,15.77
2022-10-11T15:06:29.884Z,15.79
2022-10-11T15:08:56.805Z,15.79
2022-10-11T15:11:24.242Z,15.82
2022-10-11T15:13:51.225Z,15.82
2022-10-11T15:16:20.309Z,15.88
2022-10-11T15:18:51.941Z,15.86
2022-10-11T15:21:25.154Z,15.80
2022-10-11T15:23:52.867Z,15.80
2022-10-11T15:26:30.409Z,15.85
2022-10-11T15:28:57.630Z,15.89
2022-10-11T15:31:24.536Z,15.93
2022-10-11T15:33:53.883Z,15.90
2022-10-11T15:36:22.268Z,15.92
2022-10-11T15:38:49.585Z,15.91
2022-10-11T15:41:21.456Z,15.91
2022-10-11T15:43:48.807Z,15.98
2022-10-11T15:46:20.764Z,15.99
2022-10-11T15:48:49.072Z,15.96
2022-10-11T15:51:16.562Z,15.97
2022-10-11T15:53:43.596Z,15.93
2022-10-11T15:56:15.481Z,15.91
2022-10-11T15:58:42.821Z,15.93
2022-10-11T16:01:13.997Z,15.90
2022-10-11T16:03:41.529Z,15.83
2022-10-11T16:06:09.069Z,15.77
2022-10-11T16:08:36.760Z,15.71
2022-10-11T16:11:05.289Z,15.73
2022-10-11T16:13:32.043Z,15.70
2022-10-11T16:16:02.783Z,15.64
2022-10-11T16:18:34.916Z,15.64
2022-10-11T16:21:06.844Z,15.57
2022-10-11T16:23:34.669Z,15.53
2022-10-11T16:26:05.179Z,15.54
2022-10-11T16:28:33.007Z,15.50
2022-10-11T16:31:00.216Z,15.48
2022-10-11T16:33:27.682Z,15.44
2022-10-11T16:36:14.569Z,15.45
2022-10-11T16:38:41.409Z,15.34
2022-10-11T16:41:08.176Z,15.29
2022-10-11T16:43:35.923Z,15.25
2022-10-11T16:46:02.866Z,15.21
2022-10-11T16:48:29.980Z,15.13
2022-10-11T16:51:05.389Z,15.06
2022-10-11T16:53:34.298Z,15.01
2022-10-11T16:56:07.260Z,14.95
2022-10-11T16:58:35.693Z,14.88
2022-10-11T17:01:07.872Z,14.83
2022-10-11T17:03:34.742Z,14.79
2022-10-11T17:06:01.613Z,14.72
2022-10-11T17:08:29.086Z,14.69
2022-10-11T17:10:57.708Z,14.68
2022-10-11T17:13:24.829Z,14.67
2022-10-11T17:15:51.738Z,14.61
2022-10-11T17:18:18.974Z,14.50
2022-10-11T17:20:45.961Z,14.37
2022-10-11T17:23:12.928Z,14.36
2022-10-11T17:25:44.572Z,14.33
2022-10-11T17:28:11.613Z,14.31
2022-10-11T17:30:41.842Z,14.28
2022-10-11T17:33:11.507Z,14.26
2022-10-11T17:35:38.196Z,14.27
2022-10-11T17:38:06.362Z,14.23
2022-10-11T17:40:33.509Z,14.22
2022-10-11T17:43:00.286Z,14.22
2022-10-11T17:45:27.145Z,14.21
2022-10-11T17:47:56.340Z,14.24
2022-10-11T17:50:23.133Z,14.29
2022-10-11T17:52:50.021Z,14.27
2022-10-11T17:55:16.866Z,14.25
2022-10-11T17:57:43.653Z,14.30
2022-10-11T18:00:10.900Z,14.24
2022-10-11T18:02:40.106Z,14.20
2022-10-11T18:05:08.350Z,14.19
2022-10-11T18:07:35.610Z,14.13
2022-10-11T18:10:02.385Z,14.12
2022-10-11T18:12:30.107Z,14.10
2022-10-11T18:14:56.774Z,14.14
2022-10-11T18:17:23.574Z,14.17
2022-10-11T18:19:50.402Z,14.14
2022-10-11T18:22:17.177Z,14.15
2022-10-11T18:24:44.160Z,14.14
2022-10-11T18:27:11.254Z,14.13
2022-10-11T18:29:38.072Z,14.15
2022-10-11T18:32:04.925Z,14.15
2022-10-11T18:34:31.740Z,14.15
2022-10-11T18:36:58.423Z,14.17
2022-10-11T18:39:25.285Z,14.13
2022-10-11T18:41:52.252Z,14.10
2022-10-11T18:44:19.285Z,14.01
2022-10-11T18:46:46.317Z,13.97
2022-10-11T18:49:13.621Z,13.95
2022-10-11T18:51:42.131Z,13.95
2022-10-11T18:54:12.890Z,14.00
2022-10-11T18:56:43.096Z,14.09
2022-10-11T18:59:10.121Z,14.11
2022-10-11T19:01:39.508Z,14.09
2022-10-11T19:04:09.429Z,14.06
2022-10-11T19:06:38.774Z,14.05
2022-10-11T19:09:22.996Z,13.99
2022-10-11T19:11:53.174Z,13.93
2022-10-11T19:14:22.823Z,13.93
2022-10-11T19:16:51.421Z,13.91
2022-10-11T19:19:24.510Z,13.89
2022-10-11T19:21:51.816Z,13.82
2022-10-11T19:24:21.299Z,13.82
2022-10-11T19:26:50.360Z,13.82
2022-10-11T19:29:19.975Z,13.82
2022-10-11T19:31:55.633Z,13.81
2022-10-11T19:34:23.798Z,13.81
2022-10-11T19:36:52.666Z,13.82
2022-10-11T19:39:21.366Z,13.80
2022-10-11T19:41:48.350Z,13.75
2022-10-11T19:44:16.047Z,13.71
2022-10-11T19:46:51.653Z,13.67
2022-10-11T19:49:24.018Z,13.71
2022-10-11T19:51:52.384Z,13.66
2022-10-11T19:54:19.754Z,13.66
2022-10-11T19:56:46.794Z,13.66
2022-10-11T19:59:14.579Z,13.70
2022-10-11T20:01:44.589Z,13.72
2022-10-11T20:04:33.181Z,13.79
2022-10-11T20:07:00.432Z,13.81
2022-10-11T20:09:30.034Z,13.78
2022-10-11T20:11:58.014Z,13.70
2022-10-11T20:14:24.928Z,13.69
2022-10-11T20:16:52.421Z,13.72
2022-10-11T20:19:19.349Z,13.77
2022-10-11T20:21:46.149Z,13.74
2022-10-11T20:24:13.014Z,13.71
2022-10-11T20:26:39.838Z,13.63
2022-10-11T20:29:07.095Z,13.61
2022-10-11T20:31:38.439Z,13.60
2022-10-11T20:34:07.573Z,13.62
2022-10-11T20:36:36.393Z,13.61
2022-10-11T20:39:05.349Z,13.58
2022-10-11T20:41:59.886Z,13.50
2022-10-11T20:44:26.529Z,13.45
2022-10-11T20:46:53.297Z,13.43
2022-10-11T20:49:20.516Z,13.47
2022-10-11T20:51:47.177Z,13.50
2022-10-11T20:54:13.979Z,13.55
2022-10-11T20:56:40.924Z,13.52
2022-10-11T20:59:08.390Z,13.41
2022-10-11T21:01:38.774Z,13.41
2022-10-11T21:04:07.339Z,13.39
2022-10-11T21:06:34.307Z,13.37
2022-10-11T21:09:02.265Z,13.39
2022-10-11T21:11:31.103Z,13.37
2022-10-11T21:13:59.665Z,13.38
2022-10-11T21:16:27.806Z,13.40
2022-10-11T21:18:56.810Z,13.41
2022-10-11T21:21:24.142Z,13.40
2022-10-11T21:23:58.625Z,13.42
2022-10-11T21:26:27.272Z,13.47
2022-10-11T21:28:54.343Z,13.43
2022-10-11T21:31:22.982Z,13.44
2022-10-11T21:33:50.209Z,13.43
2022-10-11T21:36:19.397Z,13.42
2022-10-11T21:38:46.839Z,13.38
2022-10-11T21:41:16.401Z,13.33
2022-10-11T21:43:43.289Z,13.31
2022-10-11T21:46:19.788Z,13.24
2022-10-11T21:48:47.691Z,13.12
2022-10-11T21:51:17.094Z,13.08
2022-10-11T21:53:43.827Z,13.07
2022-10-11T21:56:10.557Z,13.12
2022-10-11T21:58:37.436Z,13.08
2022-10-11T22:01:04.259Z,13.08
2022-10-11T22:03:31.102Z,13.06
2022-10-11T22:05:57.914Z,13.09
2022-10-11T22:08:24.601Z,13.11
2022-10-11T22:10:57.565Z,13.12
2022-10-11T22:13:25.907Z,13.07
2022-10-11T22:15:52.692Z,13.12
2022-10-11T22:18:19.586Z,13.13
2022-10-11T22:20:46.362Z,13.14
2022-10-11T22:23:13.077Z,13.17
2022-10-11T22:25:40.847Z,13.24
2022-10-11T22:28:08.492Z,13.28
2022-10-11T22:30:35.546Z,13.27
2022-10-11T22:33:02.321Z,13.25
2022-10-11T22:35:31.400Z,13.25
2022-10-11T22:38:00.422Z,13.27
2022-10-11T22:40:27.847Z,13.27
2022-10-11T22:42:54.619Z,13.27
2022-10-11T22:45:21.421Z,13.29
2022-10-11T22:47:48.845Z,13.25
2022-10-11T22:50:15.932Z,13.25
2022-10-11T22:52:42.906Z,13.23
2022-10-11T22:55:09.717Z,13.25
2022-10-11T22:57:36.804Z,13.25
2022-10-11T23:00:04.433Z,13.29
2022-10-11T23:02:31.220Z,13.36
2022-10-11T23:04:58.400Z,13.33
2022-10-11T23:07:25.398Z,13.35
2022-10-11T23:09:52.229Z,13.34
2022-10-11T23:12:18.884Z,13.35
2022-10-11T23:14:45.741Z,13.34
2022-10-11T23:17:12.466Z,13.36
2022-10-11T23:19:39.165Z,13.35
2022-10-11T23:22:05.874Z,13.37
2022-10-11T23:24:32.582Z,13.36
2022-10-11T23:26:59.473Z,13.36
2022-10-11T23:29:26.271Z,13.29
2022-10-11T23:31:53.016Z,13.26
2022-10-11T23:34:19.814Z,13.24
2022-10-11T23:36:46.502Z,13.25
2022-10-11T23:39:13.378Z,13.19
2022-10-11T23:41:40.022Z,13.16
2022-10-11T23:44:06.738Z,13.18
2022-10-11T23:46:33.663Z,13.18
2022-10-11T23:49:00.393Z,13.07
2022-10-11T23:51:27.149Z,12.99
2022-10-11T23:53:54.207Z,12.98
2022-10-11T23:56:21.274Z,12.98
2022-10-11T23:58:48.117Z,13.06
